sensor_id;sensor_type;location;lat;lon;timestamp;pressure;altitude;pressure_sealevel;temperature;humidity
56912;BME280;42800;53.928;27.662;2023-10-08T00:01:41;96896.91;;;5.83;100.00
56912;BME280;42800;53.928;27.662;2023-10-08T00:04:08;96896.53;;;5.77;100.00
56912;BME280;42800;53.928;27.662;2023-10-08T00:06:35;96882.16;;;5.59;100.00
56912;BME280;42800;53.928;27.662;2023-10-08T00:09:03;96891.06;;;5.63;100.00
56912;BME280;42800;53.928;27.662;2023-10-08T00:11:35;96886.81;;;5.62;100.00
56912;BME280;42800;53.928;27.662;2023-10-08T00:14:02;96885.66;;;5.59;100.00
56912;BME280;42800;53.928;27.662;2023-10-08T00:16:30;96881.00;;;5.63;100.00
56912;BME280;42800;53.928;27.662;2023-10-08T00:18:59;96882.56;;;5.57;100.00
56912;BME280;42800;53.928;27.662;2023-10-08T00:21:33;96891.47;;;5.54;100.00
56912;BME280;42800;53.928;27.662;2023-10-08T00:24:01;96881.78;;;5.68;100.00
56912;BME280;42800;53.928;27.662;2023-10-08T00:26:31;96895.38;;;5.64;100.00
56912;BME280;42800;53.928;27.662;2023-10-08T00:29:02;96874.78;;;5.49;100.00
56912;BME280;42800;53.928;27.662;2023-10-08T00:31:32;96884.47;;;5.50;100.00
56912;BME280;42800;53.928;27.662;2023-10-08T00:34:03;96889.13;;;5.38;100.00
56912;BME280;42800;53.928;27.662;2023-10-08T00:36:31;96878.66;;;5.40;100.00
56912;BME280;42800;53.928;27.662;2023-10-08T00:38:59;96884.88;;;5.45;100.00
56912;BME280;42800;53.928;27.662;2023-10-08T00:41:25;96877.47;;;5.41;100.00
56912;BME280;42800;53.928;27.662;2023-10-08T00:43:54;96880.97;;;5.46;100.00
56912;BME280;42800;53.928;27.662;2023-10-08T00:46:25;96894.13;;;5.29;100.00
56912;BME280;42800;53.928;27.662;2023-10-08T00:48:57;96883.28;;;5.26;100.00
56912;BME280;42800;53.928;27.662;2023-10-08T00:51:25;96888.34;;;5.31;100.00
56912;BME280;42800;53.928;27.662;2023-10-08T00:53:54;96898.81;;;5.36;100.00
56912;BME280;42800;53.928;27.662;2023-10-08T00:56:25;96892.16;;;5.08;100.00
56912;BME280;42800;53.928;27.662;2023-10-08T00:59:09;96884.78;;;5.16;100.00
56912;BME280;42800;53.928;27.662;2023-10-08T01:01:42;96890.66;;;5.25;100.00
56912;BME280;42800;53.928;27.662;2023-10-08T01:04:16;96879.34;;;5.12;100.00
56912;BME280;42800;53.928;27.662;2023-10-08T01:06:42;96880.53;;;5.18;100.00
56912;BME280;42800;53.928;27.662;2023-10-08T01:09:08;96883.25;;;5.15;100.00
56912;BME280;42800;53.928;27.662;2023-10-08T01:11:43;96890.22;;;5.05;100.00
56912;BME280;42800;53.928;27.662;2023-10-08T01:14:15;96896.09;;;5.29;100.00
56912;BME280;42800;53.928;27.662;2023-10-08T01:16:42;96884.78;;;5.12;100.00
56912;BME280;42800;53.928;27.662;2023-10-08T01:19:18;96880.53;;;5.22;100.00
56912;BME280;42800;53.928;27.662;2023-10-08T01:21:46;96873.50;;;4.96;100.00
56912;BME280;42800;53.928;27.662;2023-10-08T01:24:13;96877.81;;;5.04;100.00
56912;BME280;42800;53.928;27.662;2023-10-08T01:26:43;96888.28;;;5.13;100.00
56912;BME280;42800;53.928;27.662;2023-10-08T01:29:11;96882.03;;;4.94;100.00
56912;BME280;42800;53.928;27.662;2023-10-08T01:31:44;96873.13;;;4.98;100.00
56912;BME280;42800;53.928;27.662;2023-10-08T01:34:11;96877.78;;;4.97;100.00
56912;BME280;42800;53.928;27.662;2023-10-08T01:36:41;96875.44;;;4.99;100.00
56912;BME280;42800;53.928;27.662;2023-10-08T01:39:30;96877.38;;;4.91;100.00
56912;BME280;42800;53.928;27.662;2023-10-08T01:41:57;96874.66;;;4.95;100.00
56912;BME280;42800;53.928;27.662;2023-10-08T01:44:23;96877.38;;;4.95;100.00
56912;BME280;42800;53.928;27.662;2023-10-08T01:46:50;96876.94;;;4.82;100.00
56912;BME280;42800;53.928;27.662;2023-10-08T01:49:16;96868.78;;;4.75;100.00
56912;BME280;42800;53.928;27.662;2023-10-08T01:51:47;96872.69;;;4.81;100.00
56912;BME280;42800;53.928;27.662;2023-10-08T01:54:14;96886.28;;;4.88;100.00
56912;BME280;42800;53.928;27.662;2023-10-08T01:56:44;96873.91;;;4.98;100.00
56912;BME280;42800;53.928;27.662;2023-10-08T01:59:10;96882.38;;;4.86;100.00
56912;BME280;42800;53.928;27.662;2023-10-08T02:01:37;96882.44;;;4.97;100.00
56912;BME280;42800;53.928;27.662;2023-10-08T02:04:04;96879.66;;;4.86;100.00
56912;BME280;42800;53.928;27.662;2023-10-08T02:06:31;96877.31;;;4.70;100.00
56912;BME280;42800;53.928;27.662;2023-10-08T02:08:58;96881.94;;;4.69;100.00
56912;BME280;42800;53.928;27.662;2023-10-08T02:11:24;96887.34;;;4.66;100.00
56912;BME280;42800;53.928;27.662;2023-10-08T02:13:53;96879.28;;;4.80;100.00
56912;BME280;42800;53.928;27.662;2023-10-08T02:16:20;96882.28;;;4.54;100.00
56912;BME280;42800;53.928;27.662;2023-10-08T02:18:47;96903.59;;;4.55;100.00
56912;BME280;42800;53.928;27.662;2023-10-08T02:21:15;96891.22;;;4.65;100.00
56912;BME280;42800;53.928;27.662;2023-10-08T02:23:41;96893.53;;;4.63;100.00
56912;BME280;42800;53.928;27.662;2023-10-08T02:26:09;96886.56;;;4.62;100.00
56912;BME280;42800;53.928;27.662;2023-10-08T02:28:36;96891.63;;;4.67;100.00
56912;BME280;42800;53.928;27.662;2023-10-08T02:31:04;96881.84;;;4.52;100.00
56912;BME280;42800;53.928;27.662;2023-10-08T02:33:30;96884.56;;;4.52;100.00
56912;BME280;42800;53.928;27.662;2023-10-08T02:35:56;96893.88;;;4.51;100.00
56912;BME280;42800;53.928;27.662;2023-10-08T02:38:22;96882.69;;;4.63;100.00
56912;BME280;42800;53.928;27.662;2023-10-08T02:40:48;96861.34;;;4.61;100.00
56912;BME280;42800;53.928;27.662;2023-10-08T02:43:14;96901.59;;;4.45;100.00
56912;BME280;42800;53.928;27.662;2023-10-08T02:45:41;96918.53;;;4.24;100.00
56912;BME280;42800;53.928;27.662;2023-10-08T02:48:08;96924.06;;;4.45;100.00
56912;BME280;42800;53.928;27.662;2023-10-08T02:50:37;96927.28;;;4.65;100.00
56912;BME280;42800;53.928;27.662;2023-10-08T02:53:04;96916.38;;;4.55;100.00
56912;BME280;42800;53.928;27.662;2023-10-08T02:55:35;96917.91;;;4.52;100.00
56912;BME280;42800;53.928;27.662;2023-10-08T02:58:01;96931.00;;;4.39;100.00
56912;BME280;42800;53.928;27.662;2023-10-08T03:00:27;96926.81;;;4.49;100.00
56912;BME280;42800;53.928;27.662;2023-10-08T03:02:56;96934.91;;;4.42;100.00
56912;BME280;42800;53.928;27.662;2023-10-08T03:05:22;96946.97;;;4.48;100.00
56912;BME280;42800;53.928;27.662;2023-10-08T03:07:48;96969.81;;;4.43;100.00
56912;BME280;42800;53.928;27.662;2023-10-08T03:10:16;96962.06;;;4.49;100.00
56912;BME280;42800;53.928;27.662;2023-10-08T03:12:44;96952.59;;;4.21;100.00
56912;BME280;42800;53.928;27.662;2023-10-08T03:15:12;96987.44;;;4.19;100.00
56912;BME280;42800;53.928;27.662;2023-10-08T03:17:38;96972.00;;;4.23;100.00
56912;BME280;42800;53.928;27.662;2023-10-08T03:20:10;96956.88;;;4.26;100.00
56912;BME280;42800;53.928;27.662;2023-10-08T03:22:52;96975.88;;;4.30;100.00
56912;BME280;42800;53.928;27.662;2023-10-08T03:25:18;96944.59;;;4.43;100.00
56912;BME280;42800;53.928;27.662;2023-10-08T03:27:44;96924.00;;;4.31;100.00
56912;BME280;42800;53.928;27.662;2023-10-08T03:30:11;96936.44;;;4.39;100.00
56912;BME280;42800;53.928;27.662;2023-10-08T03:32:40;96930.63;;;4.37;100.00
56912;BME280;42800;53.928;27.662;2023-10-08T03:35:08;96926.75;;;4.38;100.00
56912;BME280;42800;53.928;27.662;2023-10-08T03:37:36;96951.13;;;4.35;100.00
56912;BME280;42800;53.928;27.662;2023-10-08T03:40:12;96938.66;;;4.23;100.00
56912;BME280;42800;53.928;27.662;2023-10-08T03:42:50;96949.13;;;4.24;100.00
56912;BME280;42800;53.928;27.662;2023-10-08T03:45:16;96941.44;;;4.34;100.00
56912;BME280;42800;53.928;27.662;2023-10-08T03:47:48;96947.25;;;4.32;100.00
56912;BME280;42800;53.928;27.662;2023-10-08T03:50:30;96964.91;;;4.12;100.00
56912;BME280;42800;53.928;27.662;2023-10-08T03:53:05;96989.78;;;4.21;100.00
56912;BME280;42800;53.928;27.662;2023-10-08T03:55:37;97025.34;;;4.12;100.00
56912;BME280;42800;53.928;27.662;2023-10-08T03:58:06;97001.44;;;4.25;100.00
56912;BME280;42800;53.928;27.662;2023-10-08T04:00:36;97022.88;;;3.96;100.00
56912;BME280;42800;53.928;27.662;2023-10-08T04:03:07;97037.00;;;4.16;100.00
56912;BME280;42800;53.928;27.662;2023-10-08T04:05:37;97029.22;;;4.11;100.00
56912;BME280;42800;53.928;27.662;2023-10-08T04:08:25;97029.16;;;4.04;100.00
56912;BME280;42800;53.928;27.662;2023-10-08T04:11:08;96997.09;;;4.13;100.00
56912;BME280;42800;53.928;27.662;2023-10-08T04:13:47;96999.38;;;4.08;100.00
56912;BME280;42800;53.928;27.662;2023-10-08T04:16:14;96976.50;;;4.05;100.00
56912;BME280;42800;53.928;27.662;2023-10-08T04:18:44;97001.28;;;4.04;100.00
56912;BME280;42800;53.928;27.662;2023-10-08T04:21:11;96998.28;;;4.19;100.00
56912;BME280;42800;53.928;27.662;2023-10-08T04:23:39;96987.78;;;4.11;100.00
56912;BME280;42800;53.928;27.662;2023-10-08T04:26:05;97002.47;;;4.10;100.00
56912;BME280;42800;53.928;27.662;2023-10-08T04:28:32;96974.56;;;4.09;100.00
56912;BME280;42800;53.928;27.662;2023-10-08T04:31:00;96968.06;;;4.17;100.00
56912;BME280;42800;53.928;27.662;2023-10-08T04:33:28;96963.41;;;4.14;100.00
56912;BME280;42800;53.928;27.662;2023-10-08T04:35:59;96960.22;;;4.05;100.00
56912;BME280;42800;53.928;27.662;2023-10-08T04:38:28;96941.72;;;4.18;100.00
56912;BME280;42800;53.928;27.662;2023-10-08T04:40:55;96932.78;;;4.14;100.00
56912;BME280;42800;53.928;27.662;2023-10-08T04:43:27;96915.69;;;4.10;100.00
56912;BME280;42800;53.928;27.662;2023-10-08T04:45:54;96901.78;;;4.11;100.00
56912;BME280;42800;53.928;27.662;2023-10-08T04:48:22;96912.25;;;4.16;100.00
56912;BME280;42800;53.928;27.662;2023-10-08T04:50:49;96916.94;;;4.19;100.00
56912;BME280;42800;53.928;27.662;2023-10-08T04:53:24;96901.31;;;4.02;100.00
56912;BME280;42800;53.928;27.662;2023-10-08T04:55:57;96921.63;;;4.26;100.00
56912;BME280;42800;53.928;27.662;2023-10-08T04:58:23;96922.88;;;4.43;100.00
56912;BME280;42800;53.928;27.662;2023-10-08T05:00:59;96942.31;;;4.48;100.00
56912;BME280;42800;53.928;27.662;2023-10-08T05:03:42;96965.59;;;4.53;100.00
56912;BME280;42800;53.928;27.662;2023-10-08T05:06:20;96965.38;;;4.21;100.00
56912;BME280;42800;53.928;27.662;2023-10-08T05:09:07;96965.22;;;4.55;100.00
56912;BME280;42800;53.928;27.662;2023-10-08T05:11:37;96970.69;;;4.65;100.00
56912;BME280;42800;53.928;27.662;2023-10-08T05:14:11;96987.03;;;4.72;100.00
56912;BME280;42800;53.928;27.662;2023-10-08T05:16:55;96985.66;;;5.07;100.00
56912;BME280;42800;53.928;27.662;2023-10-08T05:19:28;97039.06;;;5.76;100.00
56912;BME280;42800;53.928;27.662;2023-10-08T05:22:12;97134.47;;;6.44;100.00
56912;BME280;42800;53.928;27.662;2023-10-08T05:24:44;97234.09;;;6.84;100.00
56912;BME280;42800;53.928;27.662;2023-10-08T05:27:30;97305.34;;;7.12;100.00
56912;BME280;42800;53.928;27.662;2023-10-08T05:30:21;97363.03;;;7.89;100.00
56912;BME280;42800;53.928;27.662;2023-10-08T05:32:54;97394.22;;;7.77;100.00
56912;BME280;42800;53.928;27.662;2023-10-08T05:35:39;97422.69;;;8.40;100.00
56912;BME280;42800;53.928;27.662;2023-10-08T05:38:16;97455.44;;;8.44;100.00
56912;BME280;42800;53.928;27.662;2023-10-08T05:40:48;97456.97;;;8.06;100.00
56912;BME280;42800;53.928;27.662;2023-10-08T05:43:38;97481.09;;;9.00;100.00
56912;BME280;42800;53.928;27.662;2023-10-08T05:46:19;97498.59;;;9.24;100.00
56912;BME280;42800;53.928;27.662;2023-10-08T05:49:05;97500.63;;;9.83;100.00
56912;BME280;42800;53.928;27.662;2023-10-08T05:51:51;97515.06;;;9.90;100.00
56912;BME280;42800;53.928;27.662;2023-10-08T05:54:45;97537.31;;;10.55;100.00
56912;BME280;42800;53.928;27.662;2023-10-08T05:57:35;97529.03;;;10.10;100.00
56912;BME280;42800;53.928;27.662;2023-10-08T06:00:05;97509.22;;;9.88;100.00
56912;BME280;42800;53.928;27.662;2023-10-08T06:03:11;97534.09;;;9.35;100.00
56912;BME280;42800;53.928;27.662;2023-10-08T06:05:47;97491.53;;;9.34;100.00
56912;BME280;42800;53.928;27.662;2023-10-08T06:08:29;97507.94;;;10.07;100.00
56912;BME280;42800;53.928;27.662;2023-10-08T06:11:14;97520.34;;;10.19;100.00
56912;BME280;42800;53.928;27.662;2023-10-08T06:13:53;97529.47;;;10.61;100.00
56912;BME280;42800;53.928;27.662;2023-10-08T06:16:25;97517.88;;;10.39;100.00
56912;BME280;42800;53.928;27.662;2023-10-08T06:18:56;97530.53;;;11.12;100.00
56912;BME280;42800;53.928;27.662;2023-10-08T06:21:23;97548.75;;;10.92;100.00
56912;BME280;42800;53.928;27.662;2023-10-08T06:23:48;97547.84;;;10.64;100.00
56912;BME280;42800;53.928;27.662;2023-10-08T06:26:15;97552.22;;;10.96;100.00
56912;BME280;42800;53.928;27.662;2023-10-08T06:28:46;97553.41;;;10.53;100.00
56912;BME280;42800;53.928;27.662;2023-10-08T06:31:12;97536.31;;;9.65;100.00
56912;BME280;42800;53.928;27.662;2023-10-08T06:33:42;97566.59;;;10.66;100.00
56912;BME280;42800;53.928;27.662;2023-10-08T06:36:08;97557.75;;;10.47;100.00
56912;BME280;42800;53.928;27.662;2023-10-08T06:38:40;97560.19;;;9.61;100.00
56912;BME280;42800;53.928;27.662;2023-10-08T06:41:09;97556.72;;;9.50;100.00
56912;BME280;42800;53.928;27.662;2023-10-08T06:43:40;97544.97;;;9.49;100.00
56912;BME280;42800;53.928;27.662;2023-10-08T06:46:09;97547.94;;;9.87;100.00
56912;BME280;42800;53.928;27.662;2023-10-08T06:48:38;97555.94;;;10.19;100.00
56912;BME280;42800;53.928;27.662;2023-10-08T06:51:07;97540.91;;;9.82;100.00
56912;BME280;42800;53.928;27.662;2023-10-08T06:53:39;97553.66;;;10.66;100.00
56912;BME280;42800;53.928;27.662;2023-10-08T06:56:04;97562.56;;;10.29;100.00
56912;BME280;42800;53.928;27.662;2023-10-08T06:58:30;97576.47;;;11.01;100.00
56912;BME280;42800;53.928;27.662;2023-10-08T07:00:58;97579.38;;;10.31;100.00
56912;BME280;42800;53.928;27.662;2023-10-08T07:03:24;97573.09;;;9.57;100.00
56912;BME280;42800;53.928;27.662;2023-10-08T07:05:51;97566.22;;;8.99;100.00
56912;BME280;42800;53.928;27.662;2023-10-08T07:08:24;97547.91;;;8.67;100.00
56912;BME280;42800;53.928;27.662;2023-10-08T07:10:50;97544.78;;;8.61;100.00
56912;BME280;42800;53.928;27.662;2023-10-08T07:13:16;97536.97;;;8.74;100.00
56912;BME280;42800;53.928;27.662;2023-10-08T07:15:43;97558.78;;;9.03;100.00
56912;BME280;42800;53.928;27.662;2023-10-08T07:18:10;97566.63;;;8.93;100.00
56912;BME280;42800;53.928;27.662;2023-10-08T07:20:39;97568.53;;;8.25;100.00
56912;BME280;42800;53.928;27.662;2023-10-08T07:23:07;97549.81;;;8.31;100.00
56912;BME280;42800;53.928;27.662;2023-10-08T07:25:44;97554.88;;;8.11;100.00
56912;BME280;42800;53.928;27.662;2023-10-08T07:28:13;97566.50;;;9.33;100.00
56912;BME280;42800;53.928;27.662;2023-10-08T07:30:39;97593.09;;;9.32;100.00
56912;BME280;42800;53.928;27.662;2023-10-08T07:33:09;97601.38;;;8.75;100.00
56912;BME280;42800;53.928;27.662;2023-10-08T07:35:43;97583.38;;;9.03;100.00
56912;BME280;42800;53.928;27.662;2023-10-08T07:38:16;97612.19;;;9.57;100.00
56912;BME280;42800;53.928;27.662;2023-10-08T07:40:42;97609.16;;;9.23;100.00
56912;BME280;42800;53.928;27.662;2023-10-08T07:43:10;97598.00;;;9.84;100.00
56912;BME280;42800;53.928;27.662;2023-10-08T07:45:36;97609.50;;;10.90;100.00
56912;BME280;42800;53.928;27.662;2023-10-08T07:48:02;97612.13;;;11.01;95.62
56912;BME280;42800;53.928;27.662;2023-10-08T07:50:33;97592.88;;;10.63;95.87
56912;BME280;42800;53.928;27.662;2023-10-08T07:52:59;97604.16;;;10.69;97.22
56912;BME280;42800;53.928;27.662;2023-10-08T07:55:25;97608.69;;;11.69;87.63
56912;BME280;42800;53.928;27.662;2023-10-08T07:57:51;97625.81;;;12.14;79.39
56912;BME280;42800;53.928;27.662;2023-10-08T08:00:18;97633.88;;;11.98;77.33
56912;BME280;42800;53.928;27.662;2023-10-08T08:02:49;97618.97;;;12.57;78.01
56912;BME280;42800;53.928;27.662;2023-10-08T08:05:15;97630.63;;;11.35;80.93
56912;BME280;42800;53.928;27.662;2023-10-08T08:07:42;97632.75;;;11.92;78.41
56912;BME280;42800;53.928;27.662;2023-10-08T08:10:11;97621.59;;;11.72;75.66
56912;BME280;42800;53.928;27.662;2023-10-08T08:12:37;97636.63;;;11.98;77.67
56912;BME280;42800;53.928;27.662;2023-10-08T08:15:04;97639.50;;;11.46;81.17
56912;BME280;42800;53.928;27.662;2023-10-08T08:17:40;97652.56;;;10.93;84.70
56912;BME280;42800;53.928;27.662;2023-10-08T08:20:08;97635.91;;;9.85;85.29
56912;BME280;42800;53.928;27.662;2023-10-08T08:22:43;97641.81;;;9.77;93.36
56912;BME280;42800;53.928;27.662;2023-10-08T08:25:15;97632.38;;;9.88;93.47
56912;BME280;42800;53.928;27.662;2023-10-08T08:27:41;97642.41;;;10.20;95.56
56912;BME280;42800;53.928;27.662;2023-10-08T08:30:10;97646.72;;;10.18;93.20
56912;BME280;42800;53.928;27.662;2023-10-08T08:32:41;97657.63;;;10.35;93.49
56912;BME280;42800;53.928;27.662;2023-10-08T08:35:10;97648.63;;;10.35;85.33
56912;BME280;42800;53.928;27.662;2023-10-08T08:37:37;97641.66;;;10.12;89.47
56912;BME280;42800;53.928;27.662;2023-10-08T08:40:04;97633.84;;;10.11;90.70
56912;BME280;42800;53.928;27.662;2023-10-08T08:42:34;97652.69;;;9.98;90.75
56912;BME280;42800;53.928;27.662;2023-10-08T08:45:02;97647.13;;;10.16;85.55
56912;BME280;42800;53.928;27.662;2023-10-08T08:47:35;97627.28;;;10.68;84.12
56912;BME280;42800;53.928;27.662;2023-10-08T08:50:01;97638.09;;;10.86;83.48
56912;BME280;42800;53.928;27.662;2023-10-08T08:52:34;97642.97;;;11.12;79.69
56912;BME280;42800;53.928;27.662;2023-10-08T08:55:02;97651.41;;;10.21;83.14
56912;BME280;42800;53.928;27.662;2023-10-08T08:57:31;97644.34;;;10.86;77.20
56912;BME280;42800;53.928;27.662;2023-10-08T08:59:59;97639.91;;;11.48;73.54
56912;BME280;42800;53.928;27.662;2023-10-08T09:02:25;97643.75;;;11.92;69.31
56912;BME280;42800;53.928;27.662;2023-10-08T09:04:51;97647.75;;;11.87;68.59
56912;BME280;42800;53.928;27.662;2023-10-08T09:07:19;97657.59;;;11.43;71.24
56912;BME280;42800;53.928;27.662;2023-10-08T09:09:47;97653.00;;;11.29;71.42
56912;BME280;42800;53.928;27.662;2023-10-08T09:12:16;97639.59;;;11.76;71.47
56912;BME280;42800;53.928;27.662;2023-10-08T09:14:42;97648.44;;;12.25;69.32
56912;BME280;42800;53.928;27.662;2023-10-08T09:17:10;97653.91;;;12.25;68.46
56912;BME280;42800;53.928;27.662;2023-10-08T09:19:37;97648.81;;;12.82;65.25
56912;BME280;42800;53.928;27.662;2023-10-08T09:22:04;97653.31;;;12.41;63.98
56912;BME280;42800;53.928;27.662;2023-10-08T09:24:32;97657.47;;;11.92;65.90
56912;BME280;42800;53.928;27.662;2023-10-08T09:27:00;97670.69;;;12.04;66.83
56912;BME280;42800;53.928;27.662;2023-10-08T09:29:27;97659.44;;;12.53;64.84
56912;BME280;42800;53.928;27.662;2023-10-08T09:31:53;97674.75;;;13.31;63.05
56912;BME280;42800;53.928;27.662;2023-10-08T09:34:21;97653.88;;;13.10;62.21
56912;BME280;42800;53.928;27.662;2023-10-08T09:36:47;97645.69;;;12.25;63.08
56912;BME280;42800;53.928;27.662;2023-10-08T09:39:15;97666.41;;;12.88;62.68
56912;BME280;42800;53.928;27.662;2023-10-08T09:41:49;97662.78;;;12.67;63.28
56912;BME280;42800;53.928;27.662;2023-10-08T09:44:16;97670.34;;;12.29;64.13
56912;BME280;42800;53.928;27.662;2023-10-08T09:46:48;97673.91;;;13.11;63.23
56912;BME280;42800;53.928;27.662;2023-10-08T09:49:21;97673.09;;;12.87;61.86
56912;BME280;42800;53.928;27.662;2023-10-08T09:51:51;97670.44;;;12.22;62.23
56912;BME280;42800;53.928;27.662;2023-10-08T09:54:26;97667.38;;;11.82;63.47
56912;BME280;42800;53.928;27.662;2023-10-08T09:56:58;97671.28;;;11.85;62.74
56912;BME280;42800;53.928;27.662;2023-10-08T09:59:25;97675.13;;;12.25;62.40
56912;BME280;42800;53.928;27.662;2023-10-08T10:01:53;97668.16;;;11.45;63.59
56912;BME280;42800;53.928;27.662;2023-10-08T10:04:25;97664.75;;;11.71;64.07
56912;BME280;42800;53.928;27.662;2023-10-08T10:06:53;97683.00;;;11.51;63.71
56912;BME280;42800;53.928;27.662;2023-10-08T10:09:21;97660.22;;;11.54;64.16
56912;BME280;42800;53.928;27.662;2023-10-08T10:11:48;97668.47;;;11.54;61.62
56912;BME280;42800;53.928;27.662;2023-10-08T10:14:14;97665.88;;;11.40;61.11
56912;BME280;42800;53.928;27.662;2023-10-08T10:16:43;97667.16;;;11.24;61.48
56912;BME280;42800;53.928;27.662;2023-10-08T10:19:16;97689.72;;;10.35;63.96
56912;BME280;42800;53.928;27.662;2023-10-08T10:21:43;97673.72;;;10.16;65.98
56912;BME280;42800;53.928;27.662;2023-10-08T10:24:22;97673.69;;;10.19;68.23
56912;BME280;42800;53.928;27.662;2023-10-08T10:26:48;97655.34;;;10.82;67.28
56912;BME280;42800;53.928;27.662;2023-10-08T10:29:22;97655.19;;;11.04;67.53
56912;BME280;42800;53.928;27.662;2023-10-08T10:31:53;97657.94;;;11.04;67.75
56912;BME280;42800;53.928;27.662;2023-10-08T10:34:21;97654.03;;;10.46;67.02
56912;BME280;42800;53.928;27.662;2023-10-08T10:36:49;97668.63;;;10.28;68.75
56912;BME280;42800;53.928;27.662;2023-10-08T10:39:19;97643.91;;;10.39;69.03
56912;BME280;42800;53.928;27.662;2023-10-08T10:41:52;97641.63;;;10.27;70.30
56912;BME280;42800;53.928;27.662;2023-10-08T10:44:23;97652.38;;;9.75;73.49
56912;BME280;42800;53.928;27.662;2023-10-08T10:46:49;97649.16;;;9.98;71.15
56912;BME280;42800;53.928;27.662;2023-10-08T10:49:17;97646.47;;;9.87;73.40
56912;BME280;42800;53.928;27.662;2023-10-08T10:51:48;97614.50;;;9.70;76.34
56912;BME280;42800;53.928;27.662;2023-10-08T10:54:22;97639.84;;;9.81;73.90
56912;BME280;42800;53.928;27.662;2023-10-08T10:56:49;97630.00;;;10.01;72.72
56912;BME280;42800;53.928;27.662;2023-10-08T10:59:29;97629.16;;;10.11;74.76
56912;BME280;42800;53.928;27.662;2023-10-08T11:02:02;97597.06;;;10.12;72.83
56912;BME280;42800;53.928;27.662;2023-10-08T11:04:35;97603.31;;;10.16;71.79
56912;BME280;42800;53.928;27.662;2023-10-08T11:07:13;97599.69;;;10.41;72.43
56912;BME280;42800;53.928;27.662;2023-10-08T11:09:41;97578.22;;;10.28;71.03
56912;BME280;42800;53.928;27.662;2023-10-08T11:12:10;97576.75;;;10.13;71.50
56912;BME280;42800;53.928;27.662;2023-10-08T11:14:38;97565.53;;;9.86;72.38
56912;BME280;42800;53.928;27.662;2023-10-08T11:17:10;97558.16;;;9.72;72.64
56912;BME280;42800;53.928;27.662;2023-10-08T11:19:37;97576.59;;;9.61;75.22
56912;BME280;42800;53.928;27.662;2023-10-08T11:22:03;97571.47;;;9.70;75.42
56912;BME280;42800;53.928;27.662;2023-10-08T11:24:33;97625.00;;;9.78;76.36
56912;BME280;42800;53.928;27.662;2023-10-08T11:26:59;97706.38;;;8.99;100.00
56912;BME280;42800;53.928;27.662;2023-10-08T11:29:41;97526.91;;;7.23;100.00
56912;BME280;42800;53.928;27.662;2023-10-08T11:32:07;97240.91;;;6.18;100.00
56912;BME280;42800;53.928;27.662;2023-10-08T11:34:38;97094.91;;;5.49;100.00
56912;BME280;42800;53.928;27.662;2023-10-08T11:37:04;97128.94;;;5.25;100.00
56912;BME280;42800;53.928;27.662;2023-10-08T11:39:39;97276.75;;;5.16;100.00
56912;BME280;42800;53.928;27.662;2023-10-08T11:42:10;97502.69;;;4.95;100.00
56912;BME280;42800;53.928;27.662;2023-10-08T11:45:02;97659.38;;;4.68;100.00
56912;BME280;42800;53.928;27.662;2023-10-08T11:47:43;97752.00;;;5.09;100.00
56912;BME280;42800;53.928;27.662;2023-10-08T11:50:11;97739.09;;;5.03;100.00
56912;BME280;42800;53.928;27.662;2023-10-08T11:52:41;97796.78;;;4.96;100.00
56912;BME280;42800;53.928;27.662;2023-10-08T11:55:08;97878.97;;;4.93;100.00
56912;BME280;42800;53.928;27.662;2023-10-08T11:57:35;97911.56;;;5.12;100.00
56912;BME280;42800;53.928;27.662;2023-10-08T12:00:01;97824.66;;;4.93;100.00
56912;BME280;42800;53.928;27.662;2023-10-08T12:02:44;97796.66;;;4.89;100.00
56912;BME280;42800;53.928;27.662;2023-10-08T12:05:10;97785.19;;;4.99;100.00
56912;BME280;42800;53.928;27.662;2023-10-08T12:07:45;97776.81;;;5.31;100.00
56912;BME280;42800;53.928;27.662;2023-10-08T12:10:10;97686.81;;;5.36;100.00
56912;BME280;42800;53.928;27.662;2023-10-08T12:12:37;97624.56;;;5.24;100.00
56912;BME280;42800;53.928;27.662;2023-10-08T12:15:03;97594.78;;;5.04;100.00
56912;BME280;42800;53.928;27.662;2023-10-08T12:17:29;97591.19;;;4.97;100.00
56912;BME280;42800;53.928;27.662;2023-10-08T12:20:06;97660.78;;;4.59;100.00
56912;BME280;42800;53.928;27.662;2023-10-08T12:22:49;97682.47;;;5.05;100.00
56912;BME280;42800;53.928;27.662;2023-10-08T12:25:15;97657.88;;;4.71;100.00
56912;BME280;42800;53.928;27.662;2023-10-08T12:27:41;97660.03;;;4.85;100.00
56912;BME280;42800;53.928;27.662;2023-10-08T12:30:07;97666.19;;;4.82;100.00
56912;BME280;42800;53.928;27.662;2023-10-08T12:32:36;97603.13;;;4.92;100.00
56912;BME280;42800;53.928;27.662;2023-10-08T12:35:03;97576.66;;;4.85;100.00
56912;BME280;42800;53.928;27.662;2023-10-08T12:37:29;97619.41;;;4.65;100.00
56912;BME280;42800;53.928;27.662;2023-10-08T12:39:56;97621.38;;;4.68;100.00
56912;BME280;42800;53.928;27.662;2023-10-08T12:42:25;97543.03;;;4.93;100.00
56912;BME280;42800;53.928;27.662;2023-10-08T12:44:52;97491.06;;;4.95;100.00
56912;BME280;42800;53.928;27.662;2023-10-08T12:47:18;97366.72;;;4.78;100.00
56912;BME280;42800;53.928;27.662;2023-10-08T12:49:44;97307.53;;;4.90;100.00
56912;BME280;42800;53.928;27.662;2023-10-08T12:52:12;97242.19;;;5.13;100.00
56912;BME280;42800;53.928;27.662;2023-10-08T12:54:40;97208.31;;;5.00;100.00
56912;BME280;42800;53.928;27.662;2023-10-08T12:57:11;97282.56;;;4.78;100.00
56912;BME280;42800;53.928;27.662;2023-10-08T12:59:39;97313.66;;;4.84;100.00
56912;BME280;42800;53.928;27.662;2023-10-08T13:02:09;97400.44;;;5.07;100.00
56912;BME280;42800;53.928;27.662;2023-10-08T13:04:36;97466.78;;;5.09;100.00
56912;BME280;42800;53.928;27.662;2023-10-08T13:07:06;97608.41;;;5.08;100.00